createdAt,value
2019-01-24T00:00:02.811Z,4.80
2019-01-24T00:02:31.854Z,5.43
2019-01-24T00:05:00.580Z,5.83
2019-01-24T00:07:29.340Z,5.00
2019-01-24T00:09:58.168Z,4.70
2019-01-24T00:12:27.048Z,4.70
2019-01-24T00:14:55.774Z,4.47
2019-01-24T00:17:24.486Z,4.70
2019-01-24T00:19:53.183Z,5.00
2019-01-24T00:22:21.949Z,5.00
2019-01-24T00:24:51.005Z,4.87
2019-01-24T00:27:19.684Z,4.70
2019-01-24T00:29:48.396Z,4.87
2019-01-24T00:32:17.080Z,4.40
2019-01-24T00:34:45.771Z,4.93
2019-01-24T00:37:14.916Z,4.83
2019-01-24T00:39:43.691Z,4.90
2019-01-24T00:42:12.479Z,4.80
2019-01-24T00:44:41.154Z,5.27
2019-01-24T00:47:09.842Z,4.83
2019-01-24T00:49:38.605Z,5.00
2019-01-24T00:52:07.295Z,5.07
2019-01-24T00:54:36.499Z,5.07
2019-01-24T00:57:05.435Z,5.17
2019-01-24T00:59:34.134Z,5.07
2019-01-24T01:02:02.909Z,5.03
2019-01-24T01:04:31.595Z,5.67
2019-01-24T01:07:00.376Z,4.73
2019-01-24T01:09:29.387Z,5.37
2019-01-24T01:11:58.231Z,5.70
2019-01-24T01:14:27.116Z,5.87
2019-01-24T01:16:55.871Z,5.50
2019-01-24T01:19:25.134Z,6.13
2019-01-24T01:21:53.815Z,5.77
2019-01-24T01:24:22.582Z,5.80
2019-01-24T01:26:51.357Z,5.80
2019-01-24T01:29:20.360Z,5.60
2019-01-24T01:31:49.254Z,5.23
2019-01-24T01:34:18.343Z,5.67
2019-01-24T01:36:47.128Z,5.50
2019-01-24T01:39:15.827Z,5.37
2019-01-24T01:41:44.823Z,6.00
2019-01-24T01:44:13.531Z,5.87
2019-01-24T01:46:42.584Z,6.07
2019-01-24T01:49:11.583Z,5.03
2019-01-24T01:51:40.278Z,5.40
2019-01-24T01:54:09.052Z,5.30
2019-01-24T01:56:37.868Z,5.77
2019-01-24T01:59:06.625Z,5.40
2019-01-24T02:01:35.636Z,5.57
2019-01-24T02:04:04.619Z,5.20
2019-01-24T02:06:33.382Z,5.40
2019-01-24T02:09:02.421Z,5.47
2019-01-24T02:11:31.182Z,5.73
2019-01-24T02:14:00.021Z,5.83
2019-01-24T02:16:28.783Z,5.10
2019-01-24T02:18:57.516Z,5.17
2019-01-24T02:21:26.286Z,4.70
2019-01-24T02:23:55.131Z,5.07
2019-01-24T02:26:23.909Z,5.47
2019-01-24T02:28:52.656Z,5.27
2019-01-24T02:31:21.416Z,5.03
2019-01-24T02:33:50.123Z,5.40
2019-01-24T02:36:18.807Z,5.33
2019-01-24T02:38:47.648Z,5.17
2019-01-24T02:41:16.411Z,5.13
2019-01-24T02:43:45.207Z,4.80
2019-01-24T02:46:13.971Z,5.10
2019-01-24T02:48:42.659Z,5.17
2019-01-24T02:51:11.916Z,4.93
2019-01-24T02:53:40.677Z,5.10
2019-01-24T02:56:09.500Z,5.53
2019-01-24T02:58:38.289Z,4.83
2019-01-24T03:01:07.043Z,5.70
2019-01-24T03:03:35.877Z,5.20
2019-01-24T03:06:04.638Z,4.70
2019-01-24T03:08:33.326Z,4.90
2019-01-24T03:11:02.092Z,4.63
2019-01-24T03:13:30.774Z,5.00
2019-01-24T03:15:59.560Z,5.33
2019-01-24T03:18:28.242Z,5.43
2019-01-24T03:20:57.068Z,5.10
2019-01-24T03:23:25.841Z,5.40
2019-01-24T03:25:54.529Z,5.20
2019-01-24T03:28:23.320Z,5.20
2019-01-24T03:30:52.105Z,5.27
2019-01-24T03:33:20.827Z,5.10
2019-01-24T03:35:49.628Z,5.10
2019-01-24T03:38:18.702Z,5.23
2019-01-24T03:40:47.476Z,5.30
2019-01-24T03:43:16.154Z,5.30
2019-01-24T03:45:44.843Z,5.33
2019-01-24T03:48:13.555Z,5.40
2019-01-24T03:50:42.344Z,5.90
2019-01-24T03:53:11.121Z,5.93
2019-01-24T03:55:39.812Z,5.20
2019-01-24T03:58:08.569Z,6.30
2019-01-24T04:00:37.341Z,5.83
2019-01-24T04:03:06.247Z,5.40
2019-01-24T04:05:35.043Z,5.03
2019-01-24T04:08:03.891Z,6.03
2019-01-24T04:10:32.653Z,5.87
2019-01-24T04:13:01.335Z,5.67
2019-01-24T04:15:30.198Z,5.73
2019-01-24T04:17:58.983Z,6.20
2019-01-24T04:20:28.064Z,6.30
2019-01-24T04:22:56.759Z,6.00
2019-01-24T04:25:25.950Z,6.03
2019-01-24T04:27:54.723Z,6.13
2019-01-24T04:30:24.102Z,5.87
2019-01-24T04:32:53.203Z,5.33
2019-01-24T04:35:22.500Z,6.10
2019-01-24T04:37:51.330Z,6.23
2019-01-24T04:40:20.794Z,6.50
2019-01-24T04:42:49.583Z,6.80
2019-01-24T04:45:18.591Z,6.43
2019-01-24T04:47:47.399Z,7.20
2019-01-24T04:50:17.192Z,6.60
2019-01-24T04:52:45.988Z,6.67
2019-01-24T04:55:16.809Z,7.00
2019-01-24T04:57:45.589Z,6.03
2019-01-24T05:00:19.992Z,6.60
2019-01-24T05:02:48.755Z,6.50
2019-01-24T05:05:17.622Z,6.80
2019-01-24T05:07:46.509Z,7.00
2019-01-24T05:10:15.285Z,7.10
2019-01-24T05:12:44.122Z,7.30
2019-01-24T05:15:13.505Z,6.90
2019-01-24T05:17:42.305Z,6.97
2019-01-24T05:20:12.024Z,6.83
2019-01-24T05:22:40.903Z,7.23
2019-01-24T05:25:11.877Z,6.50
2019-01-24T05:27:40.644Z,6.90
2019-01-24T05:30:16.604Z,7.37
2019-01-24T05:32:45.623Z,7.30
2019-01-24T05:35:14.494Z,6.83
2019-01-24T05:37:43.300Z,7.03
2019-01-24T05:40:12.140Z,7.03
2019-01-24T05:42:41.034Z,6.37
2019-01-24T05:45:10.672Z,6.63
2019-01-24T05:47:39.540Z,6.00
2019-01-24T05:50:09.447Z,7.33
2019-01-24T05:52:38.172Z,6.70
2019-01-24T05:55:07.671Z,7.17
2019-01-24T05:57:36.476Z,6.90
2019-01-24T06:00:07.883Z,6.90
2019-01-24T06:02:36.688Z,7.10
2019-01-24T06:05:07.043Z,7.57
2019-01-24T06:07:35.832Z,6.93
2019-01-24T06:10:06.016Z,6.80
2019-01-24T06:12:34.886Z,7.03
2019-01-24T06:15:03.852Z,6.37
2019-01-24T06:17:32.696Z,6.57
2019-01-24T06:20:01.512Z,6.40
2019-01-24T06:22:30.724Z,6.57
2019-01-24T06:24:59.879Z,6.30
2019-01-24T06:27:28.584Z,6.30
2019-01-24T06:29:57.280Z,6.13
2019-01-24T06:32:26.121Z,6.00
2019-01-24T06:34:55.015Z,6.83
2019-01-24T06:37:24.168Z,6.70
2019-01-24T06:39:52.960Z,7.27
2019-01-24T06:42:22.204Z,7.07
2019-01-24T06:44:50.922Z,7.37
2019-01-24T06:47:24.420Z,7.07
2019-01-24T06:49:53.224Z,6.97
2019-01-24T06:52:21.934Z,6.70
2019-01-24T06:54:50.661Z,7.07
2019-01-24T06:57:19.461Z,7.30
2019-01-24T06:59:48.355Z,7.10
2019-01-24T07:02:17.081Z,7.53
2019-01-24T07:04:45.803Z,7.30
2019-01-24T07:07:14.528Z,6.90
2019-01-24T07:09:43.384Z,7.27
2019-01-24T07:12:12.175Z,7.50
2019-01-24T07:14:40.931Z,7.40
2019-01-24T07:17:10.287Z,8.60
2019-01-24T07:19:39.065Z,7.90
2019-01-24T07:22:07.793Z,7.50
2019-01-24T07:24:36.590Z,8.10
2019-01-24T07:27:05.460Z,8.03
2019-01-24T07:29:34.230Z,9.00
2019-01-24T07:32:03.109Z,8.00
2019-01-24T07:34:31.899Z,8.27
2019-01-24T07:37:00.793Z,8.43
2019-01-24T07:39:29.607Z,8.43
2019-01-24T07:41:58.412Z,7.80
2019-01-24T07:44:27.211Z,8.20
2019-01-24T07:46:56.021Z,8.47
2019-01-24T07:49:24.954Z,8.50
2019-01-24T07:51:53.700Z,8.83
2019-01-24T07:54:22.561Z,8.27
2019-01-24T07:56:51.364Z,7.70
2019-01-24T07:59:20.196Z,7.43
2019-01-24T08:01:49.371Z,8.80
2019-01-24T08:04:18.207Z,8.57
2019-01-24T08:06:46.984Z,7.80
2019-01-24T08:09:15.796Z,8.40
2019-01-24T08:11:46.101Z,8.73
2019-01-24T08:14:14.889Z,7.43
2019-01-24T08:16:44.158Z,8.27
2019-01-24T08:19:13.015Z,8.00
2019-01-24T08:21:41.839Z,8.03
2019-01-24T08:24:11.021Z,7.50
2019-01-24T08:26:39.831Z,8.07
2019-01-24T08:29:08.677Z,7.40
2019-01-24T08:31:37.840Z,7.43
2019-01-24T08:34:06.552Z,7.37
2019-01-24T08:36:35.361Z,6.97
2019-01-24T08:39:06.507Z,7.03
2019-01-24T08:41:35.385Z,6.90
2019-01-24T08:44:04.250Z,7.30
2019-01-24T08:46:33.109Z,7.10
2019-01-24T08:49:01.937Z,6.63
2019-01-24T08:51:30.747Z,7.17
2019-01-24T08:53:59.647Z,7.43
2019-01-24T08:56:28.453Z,7.30
2019-01-24T08:58:57.438Z,7.73
2019-01-24T09:01:26.535Z,7.97
2019-01-24T09:03:55.264Z,8.27
2019-01-24T09:06:24.640Z,7.93
2019-01-24T09:08:53.443Z,8.53
2019-01-24T09:11:22.344Z,7.37
2019-01-24T09:13:51.203Z,7.93
2019-01-24T09:16:19.995Z,8.47
2019-01-24T09:18:48.756Z,7.80
2019-01-24T09:21:17.568Z,8.10
2019-01-24T09:23:46.416Z,8.43
2019-01-24T09:26:15.289Z,8.20
2019-01-24T09:28:44.084Z,7.40
2019-01-24T09:31:13.443Z,7.37
2019-01-24T09:33:42.377Z,8.77
2019-01-24T09:36:11.492Z,8.37
2019-01-24T09:38:40.553Z,7.97
2019-01-24T09:41:09.424Z,7.77
2019-01-24T09:43:38.368Z,7.90
2019-01-24T09:46:07.220Z,8.57
2019-01-24T09:48:37.382Z,8.50
2019-01-24T09:51:06.344Z,8.80
2019-01-24T09:53:35.118Z,8.53
2019-01-24T09:56:04.358Z,8.20
2019-01-24T09:58:33.510Z,8.17
2019-01-24T10:01:02.327Z,9.27
2019-01-24T10:03:31.048Z,8.90
2019-01-24T10:05:59.937Z,8.27
2019-01-24T10:08:29.143Z,7.70
2019-01-24T10:10:57.998Z,9.33
2019-01-24T10:13:26.712Z,8.40
2019-01-24T10:15:55.454Z,9.27
2019-01-24T10:18:24.432Z,9.10
2019-01-24T10:20:53.200Z,8.10
2019-01-24T10:23:21.983Z,7.57
2019-01-24T10:25:50.771Z,7.83
2019-01-24T10:28:19.578Z,7.57
2019-01-24T10:30:48.289Z,7.20
2019-01-24T10:33:17.143Z,7.83
2019-01-24T10:35:45.988Z,7.33
2019-01-24T10:38:14.836Z,7.83
2019-01-24T10:40:43.637Z,8.10
2019-01-24T10:43:12.512Z,7.63
2019-01-24T10:45:41.382Z,7.07
2019-01-24T10:48:10.591Z,7.50
2019-01-24T10:50:39.468Z,7.27
2019-01-24T10:53:08.757Z,7.30
2019-01-24T10:55:37.551Z,7.10
2019-01-24T10:58:07.514Z,7.40
2019-01-24T11:00:41.772Z,7.33
2019-01-24T11:03:15.778Z,6.50
2019-01-24T11:05:44.854Z,6.63
2019-01-24T11:08:13.744Z,7.23
2019-01-24T11:10:42.501Z,7.13
2019-01-24T11:13:11.427Z,8.43
2019-01-24T11:15:40.599Z,9.07
2019-01-24T11:18:09.392Z,10.23
2019-01-24T11:20:38.230Z,9.93
2019-01-24T11:23:07.010Z,9.60
2019-01-24T11:25:36.005Z,11.13
2019-01-24T11:28:05.046Z,9.80
2019-01-24T11:30:34.048Z,10.23
2019-01-24T11:33:02.826Z,10.50
2019-01-24T11:35:50.861Z,11.43
2019-01-24T11:38:19.860Z,11.00
2019-01-24T11:40:48.804Z,12.97
2019-01-24T11:43:17.638Z,12.37
2019-01-24T11:45:46.455Z,12.03
2019-01-24T11:48:15.306Z,12.33
2019-01-24T11:50:44.055Z,12.13
2019-01-24T11:53:12.881Z,13.50
2019-01-24T11:55:41.753Z,12.33
2019-01-24T11:58:10.561Z,11.43
2019-01-24T12:00:44.643Z,11.70
2019-01-24T12:03:13.453Z,10.93
2019-01-24T12:05:42.212Z,11.77
2019-01-24T12:08:11.032Z,12.03
2019-01-24T12:10:39.939Z,12.20
2019-01-24T12:13:08.902Z,11.83
2019-01-24T12:15:37.810Z,12.17
2019-01-24T12:18:06.650Z,12.57
2019-01-24T12:20:35.528Z,11.77
2019-01-24T12:23:04.539Z,12.63
2019-01-24T12:25:33.563Z,12.23
2019-01-24T12:28:02.730Z,12.50
2019-01-24T12:30:33.357Z,11.60
2019-01-24T12:33:02.544Z,12.20
2019-01-24T12:35:31.410Z,12.80
2019-01-24T12:38:00.260Z,12.30
2019-01-24T12:40:29.090Z,12.90
2019-01-24T12:42:58.139Z,12.67
2019-01-24T12:45:31.811Z,13.23
2019-01-24T12:48:00.746Z,13.33
2019-01-24T12:50:29.525Z,12.57
2019-01-24T12:52:58.458Z,12.43
2019-01-24T12:55:27.604Z,11.57
2019-01-24T12:57:56.454Z,11.90
2019-01-24T13:00:30.558Z,11.77
2019-01-24T13:02:59.412Z,11.47
2019-01-24T13:05:28.237Z,12.83
2019-01-24T13:07:57.222Z,11.70
2019-01-24T13:10:26.690Z,12.87
2019-01-24T13:12:55.616Z,11.33
2019-01-24T13:15:26.997Z,11.80
2019-01-24T13:17:55.889Z,13.13
2019-01-24T13:20:24.736Z,11.83
2019-01-24T13:22:53.679Z,12.30
2019-01-24T13:25:24.953Z,10.70
2019-01-24T13:27:53.877Z,10.77
2019-01-24T13:30:24.721Z,11.93
2019-01-24T13:32:53.654Z,12.27
2019-01-24T13:35:22.462Z,11.40
2019-01-24T13:37:51.420Z,12.43
2019-01-24T13:40:22.351Z,11.67
2019-01-24T13:42:51.593Z,12.40
2019-01-24T13:45:25.263Z,11.87
2019-01-24T13:47:54.076Z,11.33
2019-01-24T13:50:23.396Z,12.03
2019-01-24T13:52:52.745Z,11.77
2019-01-24T13:55:21.574Z,12.00
2019-01-24T13:57:50.476Z,13.23
2019-01-24T14:00:33.429Z,12.80
2019-01-24T14:03:08.891Z,13.70
2019-01-24T14:05:38.365Z,12.17
2019-01-24T14:08:07.172Z,10.80
2019-01-24T14:10:36.460Z,11.77
2019-01-24T14:13:05.321Z,10.33
2019-01-24T14:15:34.211Z,10.67
2019-01-24T14:18:03.023Z,11.87
2019-01-24T14:20:31.904Z,12.63
2019-01-24T14:23:00.656Z,12.10
2019-01-24T14:25:29.792Z,10.90
2019-01-24T14:27:58.618Z,12.10
2019-01-24T14:30:27.543Z,11.83
2019-01-24T14:32:56.495Z,12.03
2019-01-24T14:35:25.337Z,11.07
2019-01-24T14:37:54.234Z,10.57
2019-01-24T14:40:23.100Z,11.60
2019-01-24T14:42:51.935Z,11.80
2019-01-24T14:45:22.450Z,12.10
2019-01-24T14:47:51.435Z,11.20
2019-01-24T14:50:22.339Z,11.87
2019-01-24T14:52:51.280Z,11.63
2019-01-24T14:55:20.257Z,11.70
2019-01-24T14:57:49.432Z,12.33
2019-01-24T15:00:43.761Z,11.33
2019-01-24T15:03:12.732Z,10.90
2019-01-24T15:05:41.746Z,10.63
2019-01-24T15:08:10.589Z,10.93
2019-01-24T15:10:40.018Z,11.13
2019-01-24T15:13:08.848Z,10.80
2019-01-24T15:15:37.890Z,10.73
2019-01-24T15:18:06.763Z,10.40
2019-01-24T15:20:36.249Z,10.67
2019-01-24T15:23:05.231Z,10.80
2019-01-24T15:25:34.135Z,11.83
2019-01-24T15:28:02.943Z,11.67
2019-01-24T15:30:32.256Z,10.70
2019-01-24T15:33:01.124Z,10.77
2019-01-24T15:35:30.041Z,9.80
2019-01-24T15:37:58.818Z,11.73
2019-01-24T15:40:29.662Z,10.57
2019-01-24T15:42:58.584Z,11.07
2019-01-24T15:45:27.552Z,11.30
2019-01-24T15:47:56.642Z,10.80
2019-01-24T15:50:25.591Z,11.37
2019-01-24T15:52:54.592Z,11.77
2019-01-24T15:55:23.562Z,10.23
2019-01-24T15:57:56.283Z,10.40
2019-01-24T16:00:27.566Z,10.27
2019-01-24T16:02:56.468Z,10.30
2019-01-24T16:05:25.418Z,10.40
2019-01-24T16:08:01.286Z,10.73
2019-01-24T16:10:25.416Z,9.80
2019-01-24T16:12:54.602Z,10.13
2019-01-24T16:15:32.147Z,9.60
2019-01-24T16:18:00.991Z,10.53
2019-01-24T16:20:30.245Z,10.53
2019-01-24T16:22:59.267Z,11.43
2019-01-24T16:25:29.517Z,11.13
2019-01-24T16:27:58.765Z,9.70
2019-01-24T16:30:29.504Z,9.40
2019-01-24T16:32:58.306Z,9.20
2019-01-24T16:35:32.083Z,8.87
2019-01-24T16:38:00.903Z,9.00
2019-01-24T16:40:30.711Z,9.13
2019-01-24T16:42:59.775Z,8.73
2019-01-24T16:45:29.788Z,9.03
2019-01-24T16:47:58.735Z,8.93
2019-01-24T16:50:28.201Z,8.70
2019-01-24T16:52:57.333Z,9.30
2019-01-24T16:55:27.728Z,7.80
2019-01-24T16:57:56.752Z,8.33
2019-01-24T17:00:43.994Z,9.00
2019-01-24T17:03:12.938Z,8.93
2019-01-24T17:05:42.030Z,9.47
2019-01-24T17:08:16.466Z,8.73
2019-01-24T17:10:41.918Z,8.53
2019-01-24T17:13:10.964Z,8.73
2019-01-24T17:15:39.964Z,8.77
2019-01-24T17:18:08.780Z,8.00
2019-01-24T17:20:37.499Z,8.33
2019-01-24T17:23:07.114Z,7.87
2019-01-24T17:25:35.901Z,8.37
2019-01-24T17:28:05.315Z,8.50
2019-01-24T17:30:38.577Z,8.40
2019-01-24T17:33:08.430Z,8.73
2019-01-24T17:35:38.327Z,8.73
2019-01-24T17:38:07.137Z,8.53
2019-01-24T17:40:36.238Z,8.63
2019-01-24T17:43:05.791Z,8.07
2019-01-24T17:45:34.777Z,8.33
2019-01-24T17:48:04.088Z,8.13
2019-01-24T17:50:32.904Z,7.90
2019-01-24T17:53:01.875Z,8.30
2019-01-24T17:55:36.197Z,8.33
2019-01-24T17:58:07.313Z,8.73
2019-01-24T18:00:37.884Z,8.00
2019-01-24T18:03:06.857Z,8.47
2019-01-24T18:05:35.734Z,7.37
2019-01-24T18:08:04.924Z,8.27
2019-01-24T18:10:34.611Z,7.77
2019-01-24T18:13:03.796Z,7.40
2019-01-24T18:15:32.900Z,7.67
2019-01-24T18:18:02.381Z,7.07
2019-01-24T18:20:32.572Z,7.70
2019-01-24T18:23:01.842Z,7.80
2019-01-24T18:25:30.755Z,8.00
2019-01-24T18:27:59.650Z,7.60
2019-01-24T18:30:30.404Z,7.43
2019-01-24T18:32:59.396Z,8.37
2019-01-24T18:35:28.622Z,7.70
2019-01-24T18:37:57.468Z,8.00
2019-01-24T18:40:27.546Z,8.07
2019-01-24T18:42:56.832Z,7.70
2019-01-24T18:45:28.643Z,7.10
2019-01-24T18:47:57.509Z,7.33
2019-01-24T18:50:26.290Z,7.57
2019-01-24T18:52:55.053Z,7.33
2019-01-24T18:55:24.195Z,7.30
2019-01-24T18:57:52.990Z,6.70
2019-01-24T19:00:40.207Z,6.30
2019-01-24T19:03:09.889Z,6.40
2019-01-24T19:05:39.409Z,6.17
2019-01-24T19:08:08.493Z,6.30
2019-01-24T19:10:37.363Z,6.97
2019-01-24T19:13:08.890Z,6.10
2019-01-24T19:15:38.249Z,6.23
2019-01-24T19:18:09.805Z,5.70
2019-01-24T19:20:38.651Z,6.20
2019-01-24T19:23:07.491Z,5.40
2019-01-24T19:25:36.393Z,6.20
2019-01-24T19:28:06.565Z,6.00
2019-01-24T19:30:35.451Z,6.13
2019-01-24T19:33:04.986Z,6.43
2019-01-24T19:35:33.780Z,7.10
2019-01-24T19:38:03.551Z,6.57
2019-01-24T19:40:32.661Z,6.17
2019-01-24T19:43:01.431Z,6.70
2019-01-24T19:45:30.285Z,6.60
2019-01-24T19:47:59.073Z,6.20
2019-01-24T19:50:29.403Z,6.03
2019-01-24T19:52:58.886Z,5.87
2019-01-24T19:55:28.257Z,6.10
2019-01-24T19:57:57.552Z,6.73
2019-01-24T20:00:28.504Z,5.90
2019-01-24T20:02:57.546Z,5.10
2019-01-24T20:05:26.806Z,5.90
2019-01-24T20:07:55.857Z,5.00
2019-01-24T20:10:26.499Z,5.30
2019-01-24T20:12:55.395Z,5.63
2019-01-24T20:15:26.895Z,5.43
2019-01-24T20:17:55.941Z,4.83
2019-01-24T20:20:25.048Z,5.30
2019-01-24T20:22:54.595Z,4.90
2019-01-24T20:25:25.683Z,5.00
2019-01-24T20:27:54.732Z,5.03
2019-01-24T20:30:25.170Z,5.63
2019-01-24T20:32:54.195Z,5.97
2019-01-24T20:35:53.198Z,5.33
2019-01-24T20:38:22.006Z,5.13
2019-01-24T20:40:50.826Z,4.87
2019-01-24T20:43:19.796Z,5.60
2019-01-24T20:45:48.713Z,5.27
2019-01-24T20:48:17.528Z,5.10
2019-01-24T20:50:46.331Z,5.00
2019-01-24T20:53:15.236Z,6.17
2019-01-24T20:55:44.031Z,5.60
2019-01-24T20:58:12.895Z,6.30
2019-01-24T21:00:41.816Z,6.10
2019-01-24T21:03:10.763Z,5.80
2019-01-24T21:05:39.581Z,5.57
2019-01-24T21:08:08.381Z,5.23
2019-01-24T21:10:37.170Z,5.63
2019-01-24T21:13:06.054Z,4.80
2019-01-24T21:15:34.785Z,5.70
2019-01-24T21:18:03.714Z,5.10
2019-01-24T21:20:32.534Z,4.83
2019-01-24T21:23:01.330Z,5.10
2019-01-24T21:25:30.276Z,4.77
2019-01-24T21:27:59.123Z,4.40
2019-01-24T21:30:33.115Z,5.10
2019-01-24T21:33:02.051Z,5.07
2019-01-24T21:35:31.022Z,4.97
2019-01-24T21:37:59.833Z,4.90
2019-01-24T21:40:28.709Z,5.03
2019-01-24T21:42:58.450Z,4.80
2019-01-24T21:45:29.241Z,5.00
2019-01-24T21:47:58.151Z,4.90
2019-01-24T21:50:27.719Z,5.40
2019-01-24T21:52:56.632Z,5.60
2019-01-24T21:55:25.466Z,5.10
2019-01-24T21:57:54.423Z,4.97
2019-01-24T22:00:24.606Z,4.83
2019-01-24T22:02:53.529Z,4.50
2019-01-24T22:05:23.043Z,4.50
2019-01-24T22:07:52.518Z,4.57
2019-01-24T22:10:23.469Z,4.23
2019-01-24T22:12:52.330Z,4.30
2019-01-24T22:15:23.092Z,4.20
2019-01-24T22:17:51.901Z,4.07
2019-01-24T22:20:20.981Z,3.97
2019-01-24T22:22:49.881Z,3.93
2019-01-24T22:25:20.991Z,3.57
2019-01-24T22:27:49.882Z,3.73
2019-01-24T22:30:21.710Z,3.47
2019-01-24T22:32:50.535Z,3.30
2019-01-24T22:35:19.740Z,3.10
2019-01-24T22:37:48.612Z,3.33
2019-01-24T22:40:17.742Z,3.23
2019-01-24T22:42:46.767Z,2.90
2019-01-24T22:45:18.299Z,2.90
2019-01-24T22:47:47.160Z,3.30
2019-01-24T22:50:16.299Z,3.47
2019-01-24T22:52:45.138Z,3.50
2019-01-24T22:55:14.271Z,3.33
2019-01-24T22:57:43.137Z,2.93
2019-01-24T23:00:55.170Z,3.00
2019-01-24T23:03:45.301Z,3.07
2019-01-24T23:06:14.095Z,3.20
2019-01-24T23:08:42.904Z,3.30
2019-01-24T23:11:11.808Z,3.20
2019-01-24T23:13:40.590Z,3.10
2019-01-24T23:16:09.777Z,3.27
2019-01-24T23:18:38.565Z,3.33
2019-01-24T23:21:07.367Z,3.20
2019-01-24T23:23:36.430Z,4.00
2019-01-24T23:26:05.530Z,3.30
2019-01-24T23:28:35.360Z,2.95
2019-01-24T23:31:04.572Z,3.30
2019-01-24T23:33:33.302Z,3.50
2019-01-24T23:36:02.185Z,3.43
2019-01-24T23:38:30.987Z,3.40
2019-01-24T23:40:59.824Z,3.50
2019-01-24T23:43:28.702Z,3.77
2019-01-24T23:45:58.074Z,3.90
2019-01-24T23:48:27.264Z,3.57
2019-01-24T23:50:56.062Z,3.80
2019-01-24T23:53:24.868Z,3.50
2019-01-24T23:55:53.623Z,3.53
2019-01-24T23:58:22.892Z,3.67
